Kingsbury, United Kingdom
Current Conditions -  °F | °C
As of 8:20 AM on Monday 29 Dec 2014 (Local Time) from EGBB Reporting Station
Clear Clear  
Wind Chill: 30°   Ceiling: Unl
Heat Index: 30°   Visibility: 6mi
Dew Point: 28°   Wind: 2mph
Humidity: 93%   Direction: 320°NW
Pressure: 30.71"   Gusts: NA
Location:  52.56°N, 1.68°W
Report Text: EGBB 290820Z 32002KT CAVOK M01/M02 Q1040
Loading
Personal Weather Stations






























Interactive Weather Map New forecast layout! Learn more

10-Day Weather Forecast

Advertisements
Track Severe Weather on mobile